This is the latest recevied weather packets stored in our database for station/object SP9WPN-12. If no packets are shown the sender has not sent any weather packets the latest 10 day(s).
| Time | Temp. | Humidity | Pressure | Rain* | Wind** | Luminosity | Snow |
|---|---|---|---|---|---|---|---|
| 1777930861 | 13.89° C | 54% | 1014.3 hPa | - | - | - | - |
| 1777930263 | 14.44° C | 53% | 1014.2 hPa | - | - | - | - |
| 1777929665 | 15° C | 52% | 1014.2 hPa | - | - | - | - |
| 1777929068 | 15.56° C | 52% | 1014.1 hPa | - | - | - | - |
| 1777928470 | 15.56° C | 51% | 1014.1 hPa | - | - | - | - |
| 1777927872 | 15.56° C | 54% | 1014.1 hPa | - | - | - | - |
| 1777927275 | 16.11° C | 52% | 1014 hPa | - | - | - | - |
| 1777926677 | 16.67° C | 50% | 1013.9 hPa | - | - | - | - |
| 1777926079 | 16.67° C | 51% | 1013.9 hPa | - | - | - | - |
| 1777925482 | 15.56° C | 58% | 1014 hPa | - | - | - | - |
| 1777924884 | 16.11° C | 55% | 1013.8 hPa | - | - | - | - |
| 1777924286 | 16.67° C | 56% | 1013.7 hPa | - | - | - | - |
| 1777923689 | 17.22° C | 52% | 1013.6 hPa | - | - | - | - |
| 1777923091 | 18.89° C | 47% | 1013.4 hPa | - | - | - | - |
| 1777922494 | 19.44° C | 45% | 1013.3 hPa | - | - | - | - |
| 1777921896 | 19.44° C | 45% | 1013.3 hPa | - | - | - | - |
| 1777921299 | 18.89° C | 46% | 1013.3 hPa | - | - | - | - |
| 1777920701 | 19.44° C | 46% | 1013.1 hPa | - | - | - | - |
| 1777920104 | 18.89° C | 47% | 1013 hPa | - | - | - | - |
| 1777919506 | 19.44° C | 45% | 1012.9 hPa | - | - | - | - |
| 1777918909 | 20.56° C | 42% | 1012.8 hPa | - | - | - | - |
| 1777918311 | 20.56° C | 42% | 1012.7 hPa | - | - | - | - |
| 1777917714 | 21.11° C | 41% | 1012.6 hPa | - | - | - | - |
| 1777917117 | 21.67° C | 40% | 1012.4 hPa | - | - | - | - |
| 1777916520 | 22.22° C | 39% | 1012.3 hPa | - | - | - | - |
* Rain since midnight (hover to see other rain measurements)
** Current wind speed in m/s (hover to see current wind gust speed)